sensor_id;sensor_type;location;lat;lon;timestamp;P1;durP1;ratioP1;P2;durP2;ratioP2
10727;SDS011;5415;59.322;18.246;2023-02-01T00:00:03;10.37;;;3.47;;
10727;SDS011;5415;59.322;18.246;2023-02-01T00:02:31;8.23;;;3.60;;
10727;SDS011;5415;59.322;18.246;2023-02-01T00:05:01;12.17;;;3.40;;
10727;SDS011;5415;59.322;18.246;2023-02-01T00:07:28;6.43;;;3.30;;
10727;SDS011;5415;59.322;18.246;2023-02-01T00:09:56;9.60;;;2.67;;
10727;SDS011;5415;59.322;18.246;2023-02-01T00:12:25;9.07;;;2.43;;
10727;SDS011;5415;59.322;18.246;2023-02-01T00:14:53;9.50;;;3.10;;
10727;SDS011;5415;59.322;18.246;2023-02-01T00:17:20;8.23;;;3.10;;
10727;SDS011;5415;59.322;18.246;2023-02-01T00:19:48;8.67;;;3.10;;
10727;SDS011;5415;59.322;18.246;2023-02-01T00:22:16;7.97;;;3.67;;
10727;SDS011;5415;59.322;18.246;2023-02-01T00:24:46;7.03;;;3.10;;
10727;SDS011;5415;59.322;18.246;2023-02-01T00:27:13;10.33;;;2.93;;
10727;SDS011;5415;59.322;18.246;2023-02-01T00:29:47;6.10;;;2.53;;
10727;SDS011;5415;59.322;18.246;2023-02-01T00:32:14;8.37;;;2.73;;
10727;SDS011;5415;59.322;18.246;2023-02-01T00:34:42;9.40;;;3.30;;
10727;SDS011;5415;59.322;18.246;2023-02-01T00:37:09;8.90;;;3.47;;
10727;SDS011;5415;59.322;18.246;2023-02-01T00:39:37;15.43;;;3.97;;
10727;SDS011;5415;59.322;18.246;2023-02-01T00:42:04;7.87;;;3.77;;
10727;SDS011;5415;59.322;18.246;2023-02-01T00:44:32;7.77;;;3.50;;
10727;SDS011;5415;59.322;18.246;2023-02-01T00:47:02;7.23;;;3.43;;
10727;SDS011;5415;59.322;18.246;2023-02-01T00:49:29;7.57;;;3.50;;
10727;SDS011;5415;59.322;18.246;2023-02-01T00:51:57;11.30;;;3.70;;
10727;SDS011;5415;59.322;18.246;2023-02-01T00:54:25;7.67;;;3.70;;
10727;SDS011;5415;59.322;18.246;2023-02-01T00:56:52;8.53;;;4.00;;
10727;SDS011;5415;59.322;18.246;2023-02-01T00:59:20;10.77;;;4.07;;
10727;SDS011;5415;59.322;18.246;2023-02-01T01:01:48;8.20;;;3.60;;
10727;SDS011;5415;59.322;18.246;2023-02-01T01:04:17;11.17;;;3.50;;
10727;SDS011;5415;59.322;18.246;2023-02-01T01:06:44;10.80;;;3.70;;
10727;SDS011;5415;59.322;18.246;2023-02-01T01:09:12;9.60;;;3.63;;
10727;SDS011;5415;59.322;18.246;2023-02-01T01:11:39;11.30;;;3.90;;
10727;SDS011;5415;59.322;18.246;2023-02-01T01:14:07;8.70;;;3.83;;
10727;SDS011;5415;59.322;18.246;2023-02-01T01:16:35;11.30;;;3.47;;
10727;SDS011;5415;59.322;18.246;2023-02-01T01:19:03;10.30;;;3.63;;
10727;SDS011;5415;59.322;18.246;2023-02-01T01:21:32;11.20;;;3.93;;
10727;SDS011;5415;59.322;18.246;2023-02-01T01:24:00;7.57;;;3.60;;
10727;SDS011;5415;59.322;18.246;2023-02-01T01:26:28;11.10;;;3.57;;
10727;SDS011;5415;59.322;18.246;2023-02-01T01:28:58;13.23;;;3.13;;
10727;SDS011;5415;59.322;18.246;2023-02-01T01:31:26;10.53;;;2.93;;
10727;SDS011;5415;59.322;18.246;2023-02-01T01:33:54;9.03;;;3.40;;
10727;SDS011;5415;59.322;18.246;2023-02-01T01:36:24;12.40;;;3.37;;
10727;SDS011;5415;59.322;18.246;2023-02-01T01:38:53;12.17;;;3.00;;
10727;SDS011;5415;59.322;18.246;2023-02-01T01:41:21;8.27;;;3.00;;
10727;SDS011;5415;59.322;18.246;2023-02-01T01:43:51;8.87;;;3.00;;
10727;SDS011;5415;59.322;18.246;2023-02-01T01:46:21;6.77;;;2.70;;
10727;SDS011;5415;59.322;18.246;2023-02-01T01:48:49;12.70;;;3.23;;
10727;SDS011;5415;59.322;18.246;2023-02-01T01:51:17;8.70;;;2.80;;
10727;SDS011;5415;59.322;18.246;2023-02-01T01:53:48;6.23;;;2.50;;
10727;SDS011;5415;59.322;18.246;2023-02-01T01:56:18;7.90;;;2.77;;
10727;SDS011;5415;59.322;18.246;2023-02-01T01:58:46;12.10;;;3.40;;
10727;SDS011;5415;59.322;18.246;2023-02-01T02:01:14;5.77;;;2.90;;
10727;SDS011;5415;59.322;18.246;2023-02-01T02:03:42;8.93;;;3.23;;
10727;SDS011;5415;59.322;18.246;2023-02-01T02:06:11;9.73;;;3.40;;
10727;SDS011;5415;59.322;18.246;2023-02-01T02:08:41;11.07;;;3.43;;
10727;SDS011;5415;59.322;18.246;2023-02-01T02:11:09;7.67;;;2.97;;
10727;SDS011;5415;59.322;18.246;2023-02-01T02:13:41;8.87;;;3.00;;
10727;SDS011;5415;59.322;18.246;2023-02-01T02:16:14;6.43;;;3.03;;
10727;SDS011;5415;59.322;18.246;2023-02-01T02:18:45;9.77;;;2.90;;
10727;SDS011;5415;59.322;18.246;2023-02-01T02:21:15;9.03;;;4.00;;
10727;SDS011;5415;59.322;18.246;2023-02-01T02:34:55;7.10;;;3.67;;
10727;SDS011;5415;59.322;18.246;2023-02-01T02:37:24;9.20;;;3.90;;
10727;SDS011;5415;59.322;18.246;2023-02-01T02:39:58;9.73;;;3.33;;
10727;SDS011;5415;59.322;18.246;2023-02-01T02:42:32;6.43;;;3.70;;
10727;SDS011;5415;59.322;18.246;2023-02-01T02:45:20;8.33;;;3.13;;
10727;SDS011;5415;59.322;18.246;2023-02-01T02:48:09;5.60;;;2.93;;
10727;SDS011;5415;59.322;18.246;2023-02-01T02:50:41;8.87;;;3.10;;
10727;SDS011;5415;59.322;18.246;2023-02-01T02:53:31;14.73;;;3.30;;
10727;SDS011;5415;59.322;18.246;2023-02-01T02:56:16;7.37;;;3.23;;
10727;SDS011;5415;59.322;18.246;2023-02-01T02:59:02;5.97;;;3.10;;
10727;SDS011;5415;59.322;18.246;2023-02-01T03:01:48;8.47;;;3.47;;
10727;SDS011;5415;59.322;18.246;2023-02-01T03:04:33;9.83;;;3.70;;
10727;SDS011;5415;59.322;18.246;2023-02-01T03:07:11;8.73;;;3.97;;
10727;SDS011;5415;59.322;18.246;2023-02-01T03:09:40;10.70;;;4.10;;
10727;SDS011;5415;59.322;18.246;2023-02-01T03:12:12;8.83;;;3.80;;
10727;SDS011;5415;59.322;18.246;2023-02-01T03:15:00;12.40;;;4.27;;
10727;SDS011;5415;59.322;18.246;2023-02-01T03:17:31;11.43;;;4.07;;
10727;SDS011;5415;59.322;18.246;2023-02-01T03:20:00;9.53;;;4.37;;
10727;SDS011;5415;59.322;18.246;2023-02-01T03:22:29;14.23;;;4.57;;
10727;SDS011;5415;59.322;18.246;2023-02-01T03:24:59;8.13;;;4.10;;
10727;SDS011;5415;59.322;18.246;2023-02-01T03:27:29;11.57;;;3.80;;
10727;SDS011;5415;59.322;18.246;2023-02-01T03:29:59;11.67;;;4.60;;
10727;SDS011;5415;59.322;18.246;2023-02-01T03:32:30;11.70;;;4.10;;
10727;SDS011;5415;59.322;18.246;2023-02-01T03:35:20;8.30;;;3.80;;
10727;SDS011;5415;59.322;18.246;2023-02-01T03:37:52;11.07;;;4.57;;
10727;SDS011;5415;59.322;18.246;2023-02-01T03:40:21;10.73;;;4.20;;
10727;SDS011;5415;59.322;18.246;2023-02-01T03:42:51;8.87;;;4.10;;
10727;SDS011;5415;59.322;18.246;2023-02-01T03:45:22;9.07;;;4.00;;
10727;SDS011;5415;59.322;18.246;2023-02-01T03:47:52;9.77;;;4.20;;
10727;SDS011;5415;59.322;18.246;2023-02-01T03:50:22;9.57;;;4.20;;
10727;SDS011;5415;59.322;18.246;2023-02-01T03:52:53;8.73;;;4.20;;
10727;SDS011;5415;59.322;18.246;2023-02-01T03:55:22;9.17;;;4.00;;
10727;SDS011;5415;59.322;18.246;2023-02-01T03:57:52;11.37;;;4.53;;
10727;SDS011;5415;59.322;18.246;2023-02-01T04:00:22;11.10;;;4.53;;
10727;SDS011;5415;59.322;18.246;2023-02-01T04:02:50;13.50;;;4.53;;
10727;SDS011;5415;59.322;18.246;2023-02-01T04:05:18;9.77;;;4.80;;
10727;SDS011;5415;59.322;18.246;2023-02-01T04:07:46;14.53;;;5.07;;
10727;SDS011;5415;59.322;18.246;2023-02-01T04:10:15;9.50;;;4.57;;
10727;SDS011;5415;59.322;18.246;2023-02-01T04:12:43;9.67;;;4.40;;
10727;SDS011;5415;59.322;18.246;2023-02-01T04:15:11;10.23;;;4.17;;
10727;SDS011;5415;59.322;18.246;2023-02-01T04:17:40;11.43;;;4.50;;
10727;SDS011;5415;59.322;18.246;2023-02-01T04:20:09;11.70;;;4.60;;
10727;SDS011;5415;59.322;18.246;2023-02-01T04:22:37;8.60;;;4.23;;
10727;SDS011;5415;59.322;18.246;2023-02-01T04:25:04;10.07;;;4.40;;
10727;SDS011;5415;59.322;18.246;2023-02-01T04:27:35;9.07;;;3.87;;
10727;SDS011;5415;59.322;18.246;2023-02-01T04:30:03;9.33;;;3.73;;
10727;SDS011;5415;59.322;18.246;2023-02-01T04:32:34;6.03;;;3.83;;
10727;SDS011;5415;59.322;18.246;2023-02-01T04:35:02;9.87;;;4.73;;
10727;SDS011;5415;59.322;18.246;2023-02-01T04:37:30;11.63;;;4.53;;
10727;SDS011;5415;59.322;18.246;2023-02-01T04:39:57;7.27;;;4.10;;
10727;SDS011;5415;59.322;18.246;2023-02-01T04:42:24;8.30;;;3.60;;
10727;SDS011;5415;59.322;18.246;2023-02-01T04:44:53;12.03;;;4.40;;
10727;SDS011;5415;59.322;18.246;2023-02-01T04:47:20;9.90;;;4.13;;
10727;SDS011;5415;59.322;18.246;2023-02-01T04:49:48;12.10;;;4.53;;
10727;SDS011;5415;59.322;18.246;2023-02-01T04:52:16;11.17;;;4.70;;
10727;SDS011;5415;59.322;18.246;2023-02-01T04:54:43;11.53;;;4.17;;
10727;SDS011;5415;59.322;18.246;2023-02-01T04:57:10;13.47;;;4.10;;
10727;SDS011;5415;59.322;18.246;2023-02-01T04:59:41;7.17;;;4.70;;
10727;SDS011;5415;59.322;18.246;2023-02-01T05:02:10;7.60;;;4.20;;
10727;SDS011;5415;59.322;18.246;2023-02-01T05:04:38;7.30;;;4.70;;
10727;SDS011;5415;59.322;18.246;2023-02-01T05:07:05;8.13;;;4.30;;
10727;SDS011;5415;59.322;18.246;2023-02-01T05:09:33;9.57;;;4.53;;
10727;SDS011;5415;59.322;18.246;2023-02-01T05:12:00;10.53;;;4.07;;
10727;SDS011;5415;59.322;18.246;2023-02-01T05:14:45;8.57;;;3.90;;
10727;SDS011;5415;59.322;18.246;2023-02-01T05:17:15;9.00;;;4.00;;
10727;SDS011;5415;59.322;18.246;2023-02-01T05:19:43;9.33;;;4.20;;
10727;SDS011;5415;59.322;18.246;2023-02-01T05:22:10;6.83;;;4.33;;
10727;SDS011;5415;59.322;18.246;2023-02-01T05:24:38;10.20;;;4.60;;
10727;SDS011;5415;59.322;18.246;2023-02-01T05:27:06;7.93;;;4.40;;
10727;SDS011;5415;59.322;18.246;2023-02-01T05:29:35;8.77;;;3.80;;
10727;SDS011;5415;59.322;18.246;2023-02-01T05:32:02;8.60;;;4.13;;
10727;SDS011;5415;59.322;18.246;2023-02-01T05:34:31;11.10;;;4.93;;
10727;SDS011;5415;59.322;18.246;2023-02-01T05:36:59;10.47;;;4.77;;
10727;SDS011;5415;59.322;18.246;2023-02-01T05:39:26;11.73;;;5.03;;
10727;SDS011;5415;59.322;18.246;2023-02-01T05:41:56;9.33;;;4.57;;
10727;SDS011;5415;59.322;18.246;2023-02-01T05:44:23;16.00;;;5.20;;
10727;SDS011;5415;59.322;18.246;2023-02-01T05:46:52;9.27;;;4.30;;
10727;SDS011;5415;59.322;18.246;2023-02-01T05:49:20;8.10;;;4.10;;
10727;SDS011;5415;59.322;18.246;2023-02-01T05:51:49;11.17;;;4.90;;
10727;SDS011;5415;59.322;18.246;2023-02-01T05:54:16;12.93;;;4.67;;
10727;SDS011;5415;59.322;18.246;2023-02-01T05:56:45;10.17;;;3.80;;
10727;SDS011;5415;59.322;18.246;2023-02-01T05:59:12;9.73;;;4.10;;
10727;SDS011;5415;59.322;18.246;2023-02-01T06:01:40;12.83;;;4.67;;
10727;SDS011;5415;59.322;18.246;2023-02-01T06:04:08;13.07;;;4.47;;
10727;SDS011;5415;59.322;18.246;2023-02-01T06:06:37;11.73;;;5.03;;
10727;SDS011;5415;59.322;18.246;2023-02-01T06:09:06;16.67;;;5.23;;
10727;SDS011;5415;59.322;18.246;2023-02-01T06:11:33;11.93;;;4.10;;
10727;SDS011;5415;59.322;18.246;2023-02-01T06:14:01;11.90;;;4.90;;
10727;SDS011;5415;59.322;18.246;2023-02-01T06:16:29;9.40;;;4.70;;
10727;SDS011;5415;59.322;18.246;2023-02-01T06:18:56;15.00;;;4.73;;
10727;SDS011;5415;59.322;18.246;2023-02-01T06:21:24;12.70;;;4.77;;
10727;SDS011;5415;59.322;18.246;2023-02-01T06:23:52;22.27;;;5.27;;
10727;SDS011;5415;59.322;18.246;2023-02-01T06:26:21;18.87;;;6.00;;
10727;SDS011;5415;59.322;18.246;2023-02-01T06:28:49;15.13;;;5.17;;
10727;SDS011;5415;59.322;18.246;2023-02-01T06:31:17;12.70;;;4.80;;
10727;SDS011;5415;59.322;18.246;2023-02-01T06:33:44;11.70;;;4.80;;
10727;SDS011;5415;59.322;18.246;2023-02-01T06:36:12;12.30;;;4.80;;
10727;SDS011;5415;59.322;18.246;2023-02-01T06:38:40;9.93;;;4.50;;
10727;SDS011;5415;59.322;18.246;2023-02-01T06:41:08;15.00;;;4.73;;
10727;SDS011;5415;59.322;18.246;2023-02-01T06:43:37;8.87;;;4.23;;
10727;SDS011;5415;59.322;18.246;2023-02-01T06:46:06;12.17;;;4.63;;
10727;SDS011;5415;59.322;18.246;2023-02-01T06:48:34;12.27;;;4.83;;
10727;SDS011;5415;59.322;18.246;2023-02-01T06:51:01;12.80;;;5.00;;
10727;SDS011;5415;59.322;18.246;2023-02-01T06:53:29;8.60;;;4.77;;
10727;SDS011;5415;59.322;18.246;2023-02-01T06:55:57;11.77;;;4.53;;
10727;SDS011;5415;59.322;18.246;2023-02-01T06:58:28;11.53;;;4.07;;
10727;SDS011;5415;59.322;18.246;2023-02-01T07:00:58;10.77;;;4.63;;
10727;SDS011;5415;59.322;18.246;2023-02-01T07:03:25;15.30;;;5.30;;
10727;SDS011;5415;59.322;18.246;2023-02-01T07:05:55;11.73;;;4.67;;
10727;SDS011;5415;59.322;18.246;2023-02-01T07:08:24;14.47;;;5.00;;
10727;SDS011;5415;59.322;18.246;2023-02-01T07:10:51;11.07;;;4.90;;
10727;SDS011;5415;59.322;18.246;2023-02-01T07:13:19;10.27;;;5.03;;
10727;SDS011;5415;59.322;18.246;2023-02-01T07:15:46;12.43;;;4.70;;
10727;SDS011;5415;59.322;18.246;2023-02-01T07:18:15;10.73;;;4.87;;
10727;SDS011;5415;59.322;18.246;2023-02-01T07:20:50;12.97;;;5.20;;
10727;SDS011;5415;59.322;18.246;2023-02-01T07:23:17;14.93;;;5.57;;
10727;SDS011;5415;59.322;18.246;2023-02-01T07:25:47;14.87;;;6.13;;
10727;SDS011;5415;59.322;18.246;2023-02-01T07:28:14;15.90;;;6.03;;
10727;SDS011;5415;59.322;18.246;2023-02-01T07:30:43;12.57;;;5.30;;
10727;SDS011;5415;59.322;18.246;2023-02-01T07:33:17;17.03;;;6.13;;
10727;SDS011;5415;59.322;18.246;2023-02-01T07:35:45;13.97;;;5.50;;
10727;SDS011;5415;59.322;18.246;2023-02-01T07:38:12;12.27;;;5.60;;
10727;SDS011;5415;59.322;18.246;2023-02-01T07:40:40;12.20;;;6.60;;
10727;SDS011;5415;59.322;18.246;2023-02-01T07:43:07;13.13;;;5.87;;
10727;SDS011;5415;59.322;18.246;2023-02-01T07:45:36;9.47;;;5.00;;
10727;SDS011;5415;59.322;18.246;2023-02-01T07:48:04;12.53;;;5.03;;
10727;SDS011;5415;59.322;18.246;2023-02-01T07:50:33;10.23;;;4.87;;
10727;SDS011;5415;59.322;18.246;2023-02-01T07:53:01;13.40;;;5.10;;
10727;SDS011;5415;59.322;18.246;2023-02-01T07:55:28;11.93;;;4.83;;
10727;SDS011;5415;59.322;18.246;2023-02-01T07:57:58;11.80;;;5.30;;
10727;SDS011;5415;59.322;18.246;2023-02-01T08:00:27;10.90;;;4.47;;
10727;SDS011;5415;59.322;18.246;2023-02-01T08:03:13;14.60;;;5.33;;
10727;SDS011;5415;59.322;18.246;2023-02-01T08:05:42;13.30;;;4.30;;
10727;SDS011;5415;59.322;18.246;2023-02-01T08:08:10;14.47;;;5.47;;
10727;SDS011;5415;59.322;18.246;2023-02-01T08:10:38;13.17;;;4.90;;
10727;SDS011;5415;59.322;18.246;2023-02-01T08:13:05;11.17;;;4.50;;
10727;SDS011;5415;59.322;18.246;2023-02-01T08:15:33;14.80;;;4.70;;
10727;SDS011;5415;59.322;18.246;2023-02-01T08:18:01;13.10;;;4.47;;
10727;SDS011;5415;59.322;18.246;2023-02-01T08:20:29;10.27;;;4.30;;
10727;SDS011;5415;59.322;18.246;2023-02-01T08:22:58;10.60;;;5.00;;
10727;SDS011;5415;59.322;18.246;2023-02-01T08:25:26;10.13;;;4.77;;
10727;SDS011;5415;59.322;18.246;2023-02-01T08:27:54;10.07;;;4.53;;
10727;SDS011;5415;59.322;18.246;2023-02-01T08:30:23;12.43;;;4.37;;
10727;SDS011;5415;59.322;18.246;2023-02-01T08:32:52;10.30;;;4.30;;
10727;SDS011;5415;59.322;18.246;2023-02-01T08:35:20;11.63;;;4.77;;
10727;SDS011;5415;59.322;18.246;2023-02-01T08:37:49;9.53;;;4.73;;
10727;SDS011;5415;59.322;18.246;2023-02-01T08:40:18;7.97;;;3.83;;
10727;SDS011;5415;59.322;18.246;2023-02-01T08:42:46;9.93;;;3.80;;
10727;SDS011;5415;59.322;18.246;2023-02-01T08:45:17;9.97;;;3.97;;
10727;SDS011;5415;59.322;18.246;2023-02-01T08:47:45;6.67;;;3.30;;
10727;SDS011;5415;59.322;18.246;2023-02-01T08:50:13;10.67;;;3.67;;
10727;SDS011;5415;59.322;18.246;2023-02-01T08:52:41;13.50;;;4.33;;
10727;SDS011;5415;59.322;18.246;2023-02-01T08:55:09;14.60;;;3.73;;
10727;SDS011;5415;59.322;18.246;2023-02-01T08:57:38;12.87;;;3.90;;
10727;SDS011;5415;59.322;18.246;2023-02-01T09:00:07;11.13;;;4.20;;
10727;SDS011;5415;59.322;18.246;2023-02-01T09:02:35;12.77;;;3.83;;
10727;SDS011;5415;59.322;18.246;2023-02-01T09:05:03;10.60;;;3.87;;
10727;SDS011;5415;59.322;18.246;2023-02-01T09:07:31;8.73;;;3.53;;
10727;SDS011;5415;59.322;18.246;2023-02-01T09:09:59;10.97;;;3.90;;
10727;SDS011;5415;59.322;18.246;2023-02-01T09:12:27;10.03;;;4.20;;
10727;SDS011;5415;59.322;18.246;2023-02-01T09:14:56;8.10;;;4.07;;
10727;SDS011;5415;59.322;18.246;2023-02-01T09:17:25;5.87;;;3.20;;
10727;SDS011;5415;59.322;18.246;2023-02-01T09:19:53;12.20;;;3.13;;
10727;SDS011;5415;59.322;18.246;2023-02-01T09:22:21;8.93;;;3.27;;
10727;SDS011;5415;59.322;18.246;2023-02-01T09:24:48;6.83;;;3.23;;
10727;SDS011;5415;59.322;18.246;2023-02-01T09:27:16;11.50;;;3.50;;
10727;SDS011;5415;59.322;18.246;2023-02-01T09:29:43;12.00;;;3.67;;
10727;SDS011;5415;59.322;18.246;2023-02-01T09:32:16;8.33;;;3.10;;
10727;SDS011;5415;59.322;18.246;2023-02-01T09:34:43;10.20;;;3.60;;
10727;SDS011;5415;59.322;18.246;2023-02-01T09:37:11;13.57;;;3.80;;
10727;SDS011;5415;59.322;18.246;2023-02-01T09:39:39;11.17;;;4.27;;
10727;SDS011;5415;59.322;18.246;2023-02-01T09:42:12;11.57;;;4.23;;
10727;SDS011;5415;59.322;18.246;2023-02-01T09:44:50;11.73;;;3.87;;
10727;SDS011;5415;59.322;18.246;2023-02-01T09:47:21;11.77;;;4.47;;
10727;SDS011;5415;59.322;18.246;2023-02-01T09:49:51;11.10;;;4.73;;
10727;SDS011;5415;59.322;18.246;2023-02-01T09:52:22;12.73;;;4.70;;
10727;SDS011;5415;59.322;18.246;2023-02-01T09:54:52;8.30;;;4.33;;
10727;SDS011;5415;59.322;18.246;2023-02-01T09:57:27;11.03;;;5.03;;
10727;SDS011;5415;59.322;18.246;2023-02-01T09:59:57;11.10;;;4.93;;
10727;SDS011;5415;59.322;18.246;2023-02-01T10:02:27;9.73;;;4.63;;
10727;SDS011;5415;59.322;18.246;2023-02-01T10:04:56;9.63;;;4.40;;
10727;SDS011;5415;59.322;18.246;2023-02-01T10:07:26;9.27;;;4.23;;
10727;SDS011;5415;59.322;18.246;2023-02-01T10:09:58;9.00;;;4.20;;
10727;SDS011;5415;59.322;18.246;2023-02-01T10:12:49;8.23;;;4.40;;
10727;SDS011;5415;59.322;18.246;2023-02-01T10:15:28;11.83;;;3.90;;
10727;SDS011;5415;59.322;18.246;2023-02-01T10:18:07;8.07;;;4.30;;
10727;SDS011;5415;59.322;18.246;2023-02-01T10:20:43;14.40;;;4.90;;
10727;SDS011;5415;59.322;18.246;2023-02-01T10:23:16;6.73;;;4.00;;
10727;SDS011;5415;59.322;18.246;2023-02-01T10:25:53;7.13;;;3.67;;
10727;SDS011;5415;59.322;18.246;2023-02-01T10:28:21;9.40;;;3.27;;
10727;SDS011;5415;59.322;18.246;2023-02-01T10:30:50;10.43;;;3.57;;
10727;SDS011;5415;59.322;18.246;2023-02-01T10:33:23;12.00;;;3.60;;
10727;SDS011;5415;59.322;18.246;2023-02-01T10:35:53;12.63;;;3.63;;
10727;SDS011;5415;59.322;18.246;2023-02-01T10:38:22;9.13;;;3.53;;
10727;SDS011;5415;59.322;18.246;2023-02-01T10:40:53;12.43;;;3.83;;
10727;SDS011;5415;59.322;18.246;2023-02-01T10:43:21;13.27;;;4.13;;
10727;SDS011;5415;59.322;18.246;2023-02-01T10:45:48;11.23;;;3.80;;
10727;SDS011;5415;59.322;18.246;2023-02-01T10:48:16;11.40;;;3.40;;
10727;SDS011;5415;59.322;18.246;2023-02-01T10:50:46;7.57;;;3.93;;
10727;SDS011;5415;59.322;18.246;2023-02-01T10:53:17;12.80;;;4.17;;
10727;SDS011;5415;59.322;18.246;2023-02-01T10:55:47;12.37;;;4.50;;
10727;SDS011;5415;59.322;18.246;2023-02-01T10:58:16;13.57;;;4.30;;
10727;SDS011;5415;59.322;18.246;2023-02-01T11:00:48;9.23;;;4.10;;
10727;SDS011;5415;59.322;18.246;2023-02-01T11:03:19;9.97;;;3.90;;
10727;SDS011;5415;59.322;18.246;2023-02-01T11:05:49;11.20;;;3.93;;
10727;SDS011;5415;59.322;18.246;2023-02-01T11:08:18;8.23;;;4.37;;
10727;SDS011;5415;59.322;18.246;2023-02-01T11:10:46;9.13;;;4.43;;
10727;SDS011;5415;59.322;18.246;2023-02-01T11:13:16;11.67;;;4.27;;
10727;SDS011;5415;59.322;18.246;2023-02-01T11:15:44;6.70;;;4.40;;
10727;SDS011;5415;59.322;18.246;2023-02-01T11:18:15;8.13;;;3.80;;
10727;SDS011;5415;59.322;18.246;2023-02-01T11:20:44;6.30;;;3.67;;
10727;SDS011;5415;59.322;18.246;2023-02-01T11:23:16;9.73;;;4.10;;
10727;SDS011;5415;59.322;18.246;2023-02-01T11:25:49;7.20;;;4.07;;
10727;SDS011;5415;59.322;18.246;2023-02-01T11:28:18;10.03;;;4.37;;
10727;SDS011;5415;59.322;18.246;2023-02-01T11:30:46;7.43;;;4.00;;
10727;SDS011;5415;59.322;18.246;2023-02-01T11:33:15;7.37;;;3.43;;
10727;SDS011;5415;59.322;18.246;2023-02-01T11:35:43;7.70;;;3.33;;
10727;SDS011;5415;59.322;18.246;2023-02-01T11:38:17;4.93;;;2.97;;
10727;SDS011;5415;59.322;18.246;2023-02-01T11:40:46;9.93;;;3.57;;
10727;SDS011;5415;59.322;18.246;2023-02-01T11:43:16;8.17;;;3.30;;
10727;SDS011;5415;59.322;18.246;2023-02-01T11:45:53;12.57;;;3.53;;
10727;SDS011;5415;59.322;18.246;2023-02-01T11:48:23;11.13;;;3.87;;
10727;SDS011;5415;59.322;18.246;2023-02-01T11:50:53;6.83;;;3.40;;
10727;SDS011;5415;59.322;18.246;2023-02-01T11:53:25;6.60;;;3.63;;
10727;SDS011;5415;59.322;18.246;2023-02-01T11:55:59;8.20;;;3.93;;
10727;SDS011;5415;59.322;18.246;2023-02-01T12:04:05;8.93;;;4.13;;
10727;SDS011;5415;59.322;18.246;2023-02-01T12:06:44;7.87;;;4.13;;
10727;SDS011;5415;59.322;18.246;2023-02-01T12:09:28;5.97;;;3.60;;
10727;SDS011;5415;59.322;18.246;2023-02-01T12:12:03;7.27;;;4.30;;
10727;SDS011;5415;59.322;18.246;2023-02-01T12:14:37;8.90;;;3.80;;
10727;SDS011;5415;59.322;18.246;2023-02-01T12:17:11;9.10;;;3.87;;
10727;SDS011;5415;59.322;18.246;2023-02-01T12:19:57;11.00;;;4.03;;
10727;SDS011;5415;59.322;18.246;2023-02-01T12:22:33;8.83;;;3.70;;
10727;SDS011;5415;59.322;18.246;2023-02-01T12:33:17;7.67;;;2.93;;
10727;SDS011;5415;59.322;18.246;2023-02-01T12:35:54;7.67;;;2.73;;
10727;SDS011;5415;59.322;18.246;2023-02-01T12:38:30;6.87;;;2.87;;
10727;SDS011;5415;59.322;18.246;2023-02-01T12:41:02;7.03;;;3.10;;
10727;SDS011;5415;59.322;18.246;2023-02-01T12:43:36;9.63;;;2.40;;
10727;SDS011;5415;59.322;18.246;2023-02-01T12:46:06;5.37;;;2.60;;
10727;SDS011;5415;59.322;18.246;2023-02-01T12:48:40;4.10;;;2.50;;
10727;SDS011;5415;59.322;18.246;2023-02-01T12:51:10;5.77;;;2.67;;
10727;SDS011;5415;59.322;18.246;2023-02-01T12:53:43;6.77;;;2.77;;
10727;SDS011;5415;59.322;18.246;2023-02-01T12:56:14;7.90;;;2.67;;
10727;SDS011;5415;59.322;18.246;2023-02-01T12:58:44;6.77;;;2.70;;
10727;SDS011;5415;59.322;18.246;2023-02-01T13:01:15;4.83;;;2.43;;
10727;SDS011;5415;59.322;18.246;2023-02-01T13:03:52;7.50;;;2.80;;
10727;SDS011;5415;59.322;18.246;2023-02-01T13:06:22;6.43;;;2.87;;
10727;SDS011;5415;59.322;18.246;2023-02-01T13:08:52;5.43;;;3.00;;
10727;SDS011;5415;59.322;18.246;2023-02-01T13:11:22;4.87;;;3.10;;
10727;SDS011;5415;59.322;18.246;2023-02-01T13:13:53;5.47;;;2.80;;
10727;SDS011;5415;59.322;18.246;2023-02-01T13:16:26;5.20;;;2.67;;
10727;SDS011;5415;59.322;18.246;2023-02-01T13:18:59;6.50;;;2.70;;
10727;SDS011;5415;59.322;18.246;2023-02-01T13:21:31;6.67;;;2.90;;
10727;SDS011;5415;59.322;18.246;2023-02-01T13:24:00;9.73;;;3.50;;
10727;SDS011;5415;59.322;18.246;2023-02-01T13:26:27;6.87;;;2.97;;
10727;SDS011;5415;59.322;18.246;2023-02-01T13:28:56;7.63;;;3.53;;
10727;SDS011;5415;59.322;18.246;2023-02-01T13:31:29;4.97;;;3.30;;
10727;SDS011;5415;59.322;18.246;2023-02-01T13:34:29;6.20;;;3.10;;
10727;SDS011;5415;59.322;18.246;2023-02-01T13:37:02;6.67;;;3.20;;
10727;SDS011;5415;59.322;18.246;2023-02-01T13:39:43;10.10;;;3.20;;
10727;SDS011;5415;59.322;18.246;2023-02-01T13:42:13;7.40;;;2.97;;
10727;SDS011;5415;59.322;18.246;2023-02-01T13:44:43;6.27;;;2.90;;
10727;SDS011;5415;59.322;18.246;2023-02-01T13:47:13;6.60;;;3.30;;
10727;SDS011;5415;59.322;18.246;2023-02-01T13:49:44;5.67;;;3.10;;
10727;SDS011;5415;59.322;18.246;2023-02-01T13:52:22;7.83;;;3.03;;
10727;SDS011;5415;59.322;18.246;2023-02-01T13:54:58;4.43;;;3.03;;
10727;SDS011;5415;59.322;18.246;2023-02-01T13:57:34;6.23;;;2.63;;
10727;SDS011;5415;59.322;18.246;2023-02-01T14:00:06;7.07;;;2.50;;
10727;SDS011;5415;59.322;18.246;2023-02-01T14:02:37;6.53;;;2.80;;
10727;SDS011;5415;59.322;18.246;2023-02-01T14:05:06;7.47;;;2.60;;
10727;SDS011;5415;59.322;18.246;2023-02-01T14:07:35;7.13;;;2.90;;
10727;SDS011;5415;59.322;18.246;2023-02-01T14:12:46;4.80;;;2.70;;
10727;SDS011;5415;59.322;18.246;2023-02-01T14:15:19;5.67;;;2.33;;
10727;SDS011;5415;59.322;18.246;2023-02-01T14:17:48;6.20;;;2.30;;
10727;SDS011;5415;59.322;18.246;2023-02-01T14:20:40;4.50;;;2.50;;
10727;SDS011;5415;59.322;18.246;2023-02-01T14:26:06;9.40;;;2.10;;
10727;SDS011;5415;59.322;18.246;2023-02-01T14:28:37;9.13;;;2.17;;
10727;SDS011;5415;59.322;18.246;2023-02-01T14:31:14;6.73;;;2.77;;
10727;SDS011;5415;59.322;18.246;2023-02-01T14:33:44;5.30;;;2.47;;
10727;SDS011;5415;59.322;18.246;2023-02-01T14:36:14;6.67;;;2.40;;
10727;SDS011;5415;59.322;18.246;2023-02-01T14:38:47;5.07;;;2.07;;
10727;SDS011;5415;59.322;18.246;2023-02-01T14:41:31;7.13;;;2.50;;
10727;SDS011;5415;59.322;18.246;2023-02-01T14:49:34;3.90;;;2.40;;
10727;SDS011;5415;59.322;18.246;2023-02-01T14:52:09;6.20;;;2.40;;
10727;SDS011;5415;59.322;18.246;2023-02-01T14:54:39;3.87;;;2.30;;
10727;SDS011;5415;59.322;18.246;2023-02-01T14:57:09;5.07;;;2.40;;
10727;SDS011;5415;59.322;18.246;2023-02-01T14:59:40;3.03;;;1.97;;
10727;SDS011;5415;59.322;18.246;2023-02-01T15:02:15;4.57;;;2.07;;
10727;SDS011;5415;59.322;18.246;2023-02-01T15:04:44;6.37;;;1.90;;
10727;SDS011;5415;59.322;18.246;2023-02-01T15:07:14;4.70;;;1.73;;
10727;SDS011;5415;59.322;18.246;2023-02-01T15:09:42;3.67;;;2.10;;
10727;SDS011;5415;59.322;18.246;2023-02-01T15:12:15;3.87;;;2.40;;
10727;SDS011;5415;59.322;18.246;2023-02-01T15:14:46;3.50;;;2.03;;
10727;SDS011;5415;59.322;18.246;2023-02-01T15:17:18;5.20;;;2.03;;
10727;SDS011;5415;59.322;18.246;2023-02-01T15:19:53;6.13;;;1.70;;
10727;SDS011;5415;59.322;18.246;2023-02-01T15:22:24;4.57;;;1.87;;
10727;SDS011;5415;59.322;18.246;2023-02-01T15:24:52;3.87;;;1.53;;
10727;SDS011;5415;59.322;18.246;2023-02-01T15:27:20;4.73;;;1.50;;
10727;SDS011;5415;59.322;18.246;2023-02-01T15:29:48;5.07;;;2.00;;
10727;SDS011;5415;59.322;18.246;2023-02-01T15:32:28;2.30;;;1.20;;
10727;SDS011;5415;59.322;18.246;2023-02-01T15:34:56;3.10;;;1.50;;
10727;SDS011;5415;59.322;18.246;2023-02-01T15:37:29;2.97;;;1.80;;